createdAt,value
2019-06-08T00:01:28.271Z,99.50
2019-06-08T00:04:01.124Z,99.30
2019-06-08T00:06:40.294Z,99.90
2019-06-08T00:09:13.072Z,99.80
2019-06-08T00:11:51.173Z,99.60
2019-06-08T00:14:25.644Z,99.60
2019-06-08T00:17:31.374Z,99.40
2019-06-08T00:19:58.676Z,99.80
2019-06-08T00:22:38.916Z,99.60
2019-06-08T00:25:19.004Z,99.60
2019-06-08T00:27:52.482Z,99.90
2019-06-08T00:30:25.264Z,99.90
2019-06-08T00:32:58.155Z,99.90
2019-06-08T00:35:41.238Z,98.90
2019-06-08T00:38:16.908Z,99.20
2019-06-08T00:40:54.305Z,99.90
2019-06-08T00:43:27.674Z,99.80
2019-06-08T00:46:03.489Z,98.80
2019-06-08T00:48:36.215Z,99.90
2019-06-08T00:51:12.585Z,99.40
2019-06-08T00:53:47.592Z,99.90
2019-06-08T00:56:25.853Z,99.90
2019-06-08T00:59:03.852Z,99.90
2019-06-08T01:01:40.724Z,99.50
2019-06-08T01:04:20.618Z,99.90
2019-06-08T01:06:54.338Z,99.40
2019-06-08T01:09:31.205Z,99.90
2019-06-08T01:12:09.668Z,99.90
2019-06-08T01:14:47.648Z,99.70
2019-06-08T01:17:21.098Z,99.90
2019-06-08T01:19:56.661Z,99.90
2019-06-08T01:22:29.628Z,99.50
2019-06-08T01:25:02.463Z,99.90
2019-06-08T01:27:35.330Z,99.90
2019-06-08T01:30:10.598Z,99.20
2019-06-08T01:32:49.446Z,99.40
2019-06-08T01:35:26.941Z,98.40
2019-06-08T01:38:01.113Z,97.70
2019-06-08T01:40:33.935Z,98.50
2019-06-08T01:43:08.427Z,98.40
2019-06-08T01:45:44.241Z,98.90
2019-06-08T01:48:20.276Z,98.80
2019-06-08T01:50:52.638Z,99.80
2019-06-08T01:53:29.243Z,99.30
2019-06-08T01:56:03.121Z,99.90
2019-06-08T01:58:35.983Z,99.90
2019-06-08T02:01:08.783Z,99.50
2019-06-08T02:03:41.663Z,99.40
2019-06-08T02:06:14.443Z,99.50
2019-06-08T02:08:49.733Z,99.80
2019-06-08T02:11:22.538Z,99.40
2019-06-08T02:14:00.179Z,98.80
2019-06-08T02:16:39.678Z,99.70
2019-06-08T02:19:20.841Z,99.30
2019-06-08T02:22:02.395Z,99.90
2019-06-08T02:24:35.534Z,99.90
2019-06-08T02:27:08.691Z,99.40
2019-06-08T02:29:49.200Z,99.20
2019-06-08T02:32:33.042Z,99.20
2019-06-08T02:35:10.174Z,98.80
2019-06-08T02:37:43.071Z,98.70
2019-06-08T02:40:18.851Z,98.90
2019-06-08T02:42:57.198Z,98.90
2019-06-08T02:45:34.048Z,99.50
2019-06-08T02:48:08.598Z,99.80
2019-06-08T02:50:43.384Z,99.10
2019-06-08T02:53:16.237Z,99.60
2019-06-08T02:55:50.687Z,99.80
2019-06-08T02:58:23.580Z,99.90
2019-06-08T03:00:56.774Z,99.60
2019-06-08T03:03:29.670Z,99.90
2019-06-08T03:06:07.652Z,99.90
2019-06-08T03:08:43.518Z,99.90
2019-06-08T03:11:17.496Z,99.90
2019-06-08T03:13:57.369Z,99.90
2019-06-08T03:16:33.404Z,99.40
2019-06-08T03:19:21.651Z,99.90
2019-06-08T03:21:49.848Z,99.90
2019-06-08T03:24:32.245Z,99.90
2019-06-08T03:27:02.727Z,99.90
2019-06-08T03:29:41.579Z,99.90
2019-06-08T03:32:20.077Z,99.90
2019-06-08T03:34:56.689Z,99.90
2019-06-08T03:37:35.805Z,99.90
2019-06-08T03:40:13.113Z,99.90
2019-06-08T03:42:45.964Z,99.90
2019-06-08T03:45:18.709Z,99.90
2019-06-08T03:47:51.570Z,99.90
2019-06-08T03:50:24.384Z,99.90
2019-06-08T03:53:09.451Z,99.90
2019-06-08T03:55:48.036Z,99.90
2019-06-08T03:58:21.350Z,99.90
2019-06-08T04:01:06.119Z,99.90
2019-06-08T04:03:39.964Z,99.90
2019-06-08T04:06:15.330Z,99.90
2019-06-08T04:08:49.950Z,99.90
2019-06-08T04:11:27.015Z,99.90
2019-06-08T04:14:02.793Z,99.90
2019-06-08T04:16:40.031Z,99.90
2019-06-08T04:19:15.625Z,99.90
2019-06-08T04:22:02.335Z,99.90
2019-06-08T04:24:34.754Z,99.90
2019-06-08T04:27:08.211Z,99.90
2019-06-08T04:29:41.784Z,99.90
2019-06-08T04:32:15.439Z,99.90
2019-06-08T04:34:49.989Z,99.90
2019-06-08T04:37:22.873Z,99.90
2019-06-08T04:39:57.388Z,99.90
2019-06-08T04:42:39.362Z,99.90
2019-06-08T04:45:16.401Z,99.90
2019-06-08T04:47:52.219Z,99.90
2019-06-08T04:50:28.075Z,99.90
2019-06-08T04:53:00.945Z,99.90
2019-06-08T04:55:34.919Z,99.90
2019-06-08T04:58:15.760Z,99.90
2019-06-08T05:00:50.834Z,99.90
2019-06-08T05:03:31.717Z,99.90
2019-06-08T05:06:04.639Z,99.90
2019-06-08T05:08:38.945Z,99.90
2019-06-08T05:11:11.986Z,99.90
2019-06-08T05:13:45.337Z,99.90
2019-06-08T05:16:19.382Z,99.90
2019-06-08T05:18:54.434Z,99.90
2019-06-08T05:21:30.150Z,99.90
2019-06-08T05:24:08.251Z,99.90
2019-06-08T05:26:41.907Z,99.90
2019-06-08T05:29:20.921Z,99.90
2019-06-08T05:32:01.476Z,99.90
2019-06-08T05:34:36.423Z,99.90
2019-06-08T05:37:10.808Z,99.90
2019-06-08T05:39:49.913Z,99.90
2019-06-08T05:42:24.786Z,99.90
2019-06-08T05:45:06.123Z,99.90
2019-06-08T05:47:39.732Z,99.90
2019-06-08T05:50:12.714Z,99.90
2019-06-08T05:52:50.447Z,99.90
2019-06-08T05:55:25.886Z,99.90
2019-06-08T05:58:02.330Z,99.90
2019-06-08T06:00:38.116Z,99.90
2019-06-08T06:03:14.214Z,99.90
2019-06-08T06:05:49.010Z,99.90
2019-06-08T06:08:21.718Z,99.90
2019-06-08T06:10:54.613Z,99.90
2019-06-08T06:13:34.981Z,99.90
2019-06-08T06:16:07.665Z,99.90
2019-06-08T06:18:44.980Z,99.90
2019-06-08T06:21:20.875Z,99.90
2019-06-08T06:23:55.238Z,99.90
2019-06-08T06:26:29.968Z,99.90
2019-06-08T06:29:02.907Z,99.90
2019-06-08T06:31:35.849Z,99.90
2019-06-08T06:34:08.514Z,99.90
2019-06-08T06:36:47.771Z,99.90
2019-06-08T06:39:20.910Z,99.90
2019-06-08T06:41:53.881Z,99.90
2019-06-08T06:44:37.500Z,99.90
2019-06-08T06:47:10.363Z,99.90
2019-06-08T06:49:46.281Z,99.90
2019-06-08T06:52:19.341Z,99.90
2019-06-08T06:54:53.284Z,99.90
2019-06-08T06:57:26.563Z,99.90
2019-06-08T07:00:01.797Z,99.90
2019-06-08T07:02:37.225Z,99.90
2019-06-08T07:05:10.200Z,99.90
2019-06-08T07:07:44.124Z,99.90
2019-06-08T07:10:17.411Z,99.00
2019-06-08T07:12:52.820Z,99.20
2019-06-08T07:15:26.355Z,98.50
2019-06-08T07:17:59.096Z,98.60
2019-06-08T07:20:34.300Z,99.10
2019-06-08T07:23:07.023Z,97.70
2019-06-08T07:25:40.435Z,97.60
2019-06-08T07:28:16.147Z,98.60
2019-06-08T07:30:54.863Z,96.70
2019-06-08T07:33:31.111Z,96.80
2019-06-08T07:36:03.825Z,95.90
2019-06-08T07:38:38.353Z,95.90
2019-06-08T07:41:11.125Z,97.10
2019-06-08T07:43:43.818Z,96.50
2019-06-08T07:46:16.739Z,94.70
2019-06-08T07:48:54.473Z,94.20
2019-06-08T07:51:33.701Z,95.10
2019-06-08T07:54:06.445Z,94.90
2019-06-08T07:56:39.191Z,95.30
2019-06-08T07:59:15.259Z,95.10
2019-06-08T08:01:50.003Z,94.30
2019-06-08T08:04:22.668Z,94.30
2019-06-08T08:07:20.864Z,96.10
2019-06-08T08:09:54.953Z,95.00
2019-06-08T08:12:30.958Z,93.20
2019-06-08T08:15:03.673Z,94.00
2019-06-08T08:17:39.479Z,94.10
2019-06-08T08:20:14.008Z,92.10
2019-06-08T08:22:49.216Z,92.60
2019-06-08T08:25:28.099Z,93.10
2019-06-08T08:28:03.586Z,92.70
2019-06-08T08:30:37.717Z,92.70
2019-06-08T08:33:10.805Z,90.70
2019-06-08T08:35:51.031Z,92.70
2019-06-08T08:38:27.513Z,91.20
2019-06-08T08:41:07.204Z,92.50
2019-06-08T08:43:39.094Z,92.40
2019-06-08T08:46:14.301Z,91.40
2019-06-08T08:48:52.451Z,92.70
2019-06-08T08:51:27.763Z,89.70
2019-06-08T08:54:04.877Z,88.70
2019-06-08T08:56:38.277Z,90.80
2019-06-08T08:59:11.378Z,91.50
2019-06-08T09:01:51.266Z,90.90
2019-06-08T09:04:28.305Z,90.10
2019-06-08T09:07:06.943Z,91.00
2019-06-08T09:09:38.697Z,89.10
2019-06-08T09:12:13.805Z,89.20
2019-06-08T09:14:51.896Z,88.20
2019-06-08T09:17:27.981Z,87.60
2019-06-08T09:20:03.813Z,91.70
2019-06-08T09:22:52.034Z,90.10
2019-06-08T09:25:17.982Z,86.70
2019-06-08T09:27:54.604Z,89.70
2019-06-08T09:30:34.784Z,85.70
2019-06-08T09:33:08.096Z,84.30
2019-06-08T09:35:47.699Z,87.20
2019-06-08T09:38:19.197Z,86.40
2019-06-08T09:40:53.241Z,85.30
2019-06-08T09:43:32.069Z,88.30
2019-06-08T09:46:05.560Z,90.60
2019-06-08T09:48:39.329Z,87.80
2019-06-08T09:51:15.328Z,85.20
2019-06-08T09:53:48.279Z,87.90
2019-06-08T09:56:28.019Z,85.40
2019-06-08T09:59:07.212Z,86.10
2019-06-08T10:01:38.919Z,83.40
2019-06-08T10:04:13.404Z,83.40
2019-06-08T10:06:47.962Z,83.40
2019-06-08T10:09:25.239Z,86.20
2019-06-08T10:11:59.578Z,78.90
2019-06-08T10:14:34.754Z,82.00
2019-06-08T10:17:08.866Z,83.70
2019-06-08T10:19:42.029Z,84.70
2019-06-08T10:22:14.823Z,77.70
2019-06-08T10:24:49.884Z,79.70
2019-06-08T10:27:22.956Z,80.40
2019-06-08T10:29:58.615Z,82.30
2019-06-08T10:32:31.359Z,84.20
2019-06-08T10:35:10.148Z,83.40
2019-06-08T10:37:41.798Z,77.90
2019-06-08T10:40:14.729Z,81.10
2019-06-08T10:42:49.880Z,81.90
2019-06-08T10:45:22.708Z,84.00
2019-06-08T10:47:59.681Z,82.40
2019-06-08T10:50:33.729Z,83.90
2019-06-08T10:53:10.553Z,84.60
2019-06-08T10:55:41.114Z,83.00
2019-06-08T10:58:19.415Z,84.00
2019-06-08T11:00:52.757Z,87.30
2019-06-08T11:03:25.495Z,81.30
2019-06-08T11:06:00.722Z,79.40
2019-06-08T11:08:33.089Z,81.80
2019-06-08T11:11:11.982Z,79.50
2019-06-08T11:13:50.068Z,82.50
2019-06-08T11:16:25.617Z,84.70
2019-06-08T11:19:00.977Z,85.80
2019-06-08T11:21:34.452Z,88.00
2019-06-08T11:24:23.113Z,86.50
2019-06-08T11:26:41.882Z,82.90
2019-06-08T11:29:14.720Z,79.00
2019-06-08T11:31:50.947Z,85.60
2019-06-08T11:34:28.727Z,91.10
2019-06-08T11:37:03.638Z,88.50
2019-06-08T11:39:38.206Z,90.80
2019-06-08T11:42:12.956Z,87.00
2019-06-08T11:44:51.225Z,86.30
2019-06-08T11:47:22.844Z,87.50
2019-06-08T11:49:58.203Z,88.90
2019-06-08T11:52:32.916Z,87.20
2019-06-08T11:55:10.963Z,87.30
2019-06-08T11:57:44.308Z,89.00
2019-06-08T12:00:25.222Z,90.10
2019-06-08T12:02:53.262Z,86.70
2019-06-08T12:05:27.842Z,90.40
2019-06-08T12:08:08.447Z,91.40
2019-06-08T12:10:41.131Z,91.70
2019-06-08T12:13:17.710Z,90.90
2019-06-08T12:15:49.961Z,94.70
2019-06-08T12:18:24.667Z,93.30
2019-06-08T12:21:01.503Z,91.90
2019-06-08T12:23:35.284Z,92.90
2019-06-08T12:26:12.257Z,91.60
2019-06-08T12:28:50.815Z,90.50
2019-06-08T12:31:40.075Z,92.00
2019-06-08T12:34:13.469Z,93.00
2019-06-08T12:36:49.146Z,93.00
2019-06-08T12:39:22.076Z,93.20
2019-06-08T12:41:55.461Z,95.10
2019-06-08T12:44:29.120Z,94.50
2019-06-08T12:47:02.790Z,94.80
2019-06-08T12:49:40.102Z,96.90
2019-06-08T12:52:13.862Z,95.80
2019-06-08T12:54:59.280Z,96.10
2019-06-08T12:57:22.992Z,95.60
2019-06-08T12:59:59.817Z,95.40
2019-06-08T13:02:30.387Z,97.00
2019-06-08T13:05:03.104Z,96.60
2019-06-08T13:07:38.592Z,95.80
2019-06-08T13:10:11.526Z,95.70
2019-06-08T13:12:50.054Z,97.30
2019-06-08T13:15:25.047Z,97.30
2019-06-08T13:18:01.470Z,97.30
2019-06-08T13:20:39.186Z,97.20
2019-06-08T13:23:13.058Z,98.50
2019-06-08T13:25:48.443Z,98.80
2019-06-08T13:28:41.255Z,96.90
2019-06-08T13:31:24.091Z,98.40
2019-06-08T13:33:58.542Z,97.80
2019-06-08T13:36:29.696Z,97.70
2019-06-08T13:39:10.019Z,96.60
2019-06-08T13:41:45.623Z,97.70
2019-06-08T13:44:18.227Z,97.60
2019-06-08T13:46:52.400Z,98.90
2019-06-08T13:49:29.667Z,98.50
2019-06-08T13:52:00.208Z,98.70
2019-06-08T13:54:38.025Z,97.30
2019-06-08T13:57:10.595Z,97.50
2019-06-08T13:59:51.670Z,98.00
2019-06-08T14:02:31.627Z,97.70
2019-06-08T14:05:03.445Z,98.00
2019-06-08T14:07:38.095Z,96.90
2019-06-08T14:10:14.596Z,98.00
2019-06-08T14:12:48.852Z,96.30
2019-06-08T14:15:23.414Z,96.90
2019-06-08T14:17:59.322Z,97.00
2019-06-08T14:20:34.656Z,97.10
2019-06-08T14:23:08.954Z,98.20
2019-06-08T14:25:50.665Z,96.50
2019-06-08T14:28:22.872Z,97.20
2019-06-08T14:30:55.195Z,97.40
2019-06-08T14:33:32.061Z,98.50
2019-06-08T14:36:03.357Z,98.10
2019-06-08T14:38:42.095Z,97.40
2019-06-08T14:41:17.822Z,98.90
2019-06-08T14:43:54.469Z,97.70
2019-06-08T14:46:28.796Z,98.60
2019-06-08T14:49:05.393Z,99.40
2019-06-08T14:51:52.287Z,98.50
2019-06-08T14:54:30.873Z,98.40
2019-06-08T14:57:02.214Z,98.40
2019-06-08T14:59:39.167Z,99.90
2019-06-08T15:02:19.355Z,99.90
2019-06-08T15:04:54.351Z,99.30
2019-06-08T15:07:32.553Z,99.90
2019-06-08T15:10:09.990Z,99.70
2019-06-08T15:12:45.678Z,99.60
2019-06-08T15:15:19.815Z,99.70
2019-06-08T15:17:58.098Z,97.80
2019-06-08T15:20:30.620Z,97.80
2019-06-08T15:23:05.891Z,96.70
2019-06-08T15:25:42.618Z,97.60
2019-06-08T15:28:15.484Z,97.50
2019-06-08T15:30:54.328Z,97.20
2019-06-08T15:33:31.022Z,97.50
2019-06-08T15:36:03.593Z,98.00
2019-06-08T15:38:38.409Z,97.30
2019-06-08T15:41:12.870Z,98.40
2019-06-08T15:43:48.134Z,97.50
2019-06-08T15:46:22.008Z,98.00
2019-06-08T15:48:55.233Z,98.20
2019-06-08T15:51:37.579Z,96.70
2019-06-08T15:54:08.538Z,98.90
2019-06-08T15:56:48.573Z,97.30
2019-06-08T15:59:18.217Z,97.10
2019-06-08T16:01:52.984Z,97.90
2019-06-08T16:04:27.810Z,99.40
2019-06-08T16:07:01.982Z,98.90
2019-06-08T16:09:39.640Z,99.20
2019-06-08T16:12:15.844Z,97.20
2019-06-08T16:14:48.791Z,97.50
2019-06-08T16:17:21.546Z,97.70
2019-06-08T16:19:59.208Z,96.50
2019-06-08T16:22:33.859Z,96.90
2019-06-08T16:25:09.211Z,97.00
2019-06-08T16:27:42.090Z,98.70
2019-06-08T16:30:16.408Z,98.00
2019-06-08T16:32:49.240Z,99.70
2019-06-08T16:35:22.233Z,98.00
2019-06-08T16:37:54.965Z,97.40
2019-06-08T16:40:27.934Z,96.10
2019-06-08T16:43:06.478Z,96.20
2019-06-08T16:45:42.540Z,96.00
2019-06-08T16:48:16.170Z,95.60
2019-06-08T16:50:52.764Z,97.80
2019-06-08T16:53:44.463Z,98.50
2019-06-08T16:56:20.715Z,96.40
2019-06-08T16:58:54.997Z,96.30
2019-06-08T17:01:32.927Z,97.60
2019-06-08T17:04:06.046Z,97.40
2019-06-08T17:06:43.243Z,96.90
2019-06-08T17:09:19.045Z,96.40
2019-06-08T17:11:54.566Z,96.90
2019-06-08T17:14:28.269Z,98.50
2019-06-08T17:17:03.037Z,97.00
2019-06-08T17:19:43.028Z,97.30
2019-06-08T17:22:18.555Z,97.40
2019-06-08T17:24:54.219Z,96.20
2019-06-08T17:27:32.527Z,96.30
2019-06-08T17:30:08.595Z,97.90
2019-06-08T17:32:40.586Z,97.10
2019-06-08T17:35:18.010Z,97.00
2019-06-08T17:37:50.595Z,97.20
2019-06-08T17:40:27.395Z,96.40
2019-06-08T17:43:00.303Z,97.40
2019-06-08T17:45:42.795Z,97.90
2019-06-08T17:48:15.959Z,97.70
2019-06-08T17:50:52.478Z,97.40
2019-06-08T17:53:28.500Z,95.40
2019-06-08T17:56:10.511Z,97.40
2019-06-08T17:58:47.473Z,95.80
2019-06-08T18:01:27.440Z,97.00
2019-06-08T18:04:00.006Z,95.80
2019-06-08T18:06:33.674Z,96.20
2019-06-08T18:09:17.345Z,96.50
2019-06-08T18:11:50.051Z,95.90
2019-06-08T18:14:28.816Z,96.30
2019-06-08T18:17:03.642Z,96.40
2019-06-08T18:19:39.826Z,96.90
2019-06-08T18:22:15.239Z,95.60
2019-06-08T18:24:47.750Z,96.80
2019-06-08T18:27:20.075Z,97.50
2019-06-08T18:29:54.823Z,96.90
2019-06-08T18:32:27.636Z,97.30
2019-06-08T18:35:00.550Z,97.20
2019-06-08T18:37:39.425Z,97.40
2019-06-08T18:40:13.384Z,97.80
2019-06-08T18:42:48.475Z,95.80
2019-06-08T18:45:27.566Z,95.90
2019-06-08T18:48:03.113Z,95.00
2019-06-08T18:50:39.121Z,95.90
2019-06-08T18:53:10.548Z,95.00
2019-06-08T18:55:50.127Z,95.10
2019-06-08T18:58:25.089Z,96.30
2019-06-08T19:00:58.220Z,97.20
2019-06-08T19:03:31.992Z,96.50
2019-06-08T19:06:11.930Z,96.50
2019-06-08T19:08:48.856Z,96.90
2019-06-08T19:11:28.036Z,96.90
2019-06-08T19:14:00.607Z,97.40
2019-06-08T19:16:40.841Z,96.90
2019-06-08T19:19:13.669Z,96.70
2019-06-08T19:21:51.909Z,97.00
2019-06-08T19:24:24.672Z,97.70
2019-06-08T19:26:58.939Z,96.50
2019-06-08T19:29:38.184Z,97.80
2019-06-08T19:32:12.083Z,97.20
2019-06-08T19:34:53.254Z,97.60
2019-06-08T19:37:23.252Z,98.00
2019-06-08T19:39:59.560Z,97.10
2019-06-08T19:42:40.021Z,97.30
2019-06-08T19:45:14.611Z,96.50
2019-06-08T19:47:54.791Z,98.10
2019-06-08T19:50:31.437Z,97.80
2019-06-08T19:53:07.988Z,98.30
2019-06-08T19:55:45.444Z,98.40
2019-06-08T19:58:19.660Z,98.40
2019-06-08T20:00:54.574Z,98.50
2019-06-08T20:03:29.791Z,98.50
2019-06-08T20:06:08.943Z,98.50
2019-06-08T20:08:42.898Z,98.80
2019-06-08T20:11:23.086Z,98.00
2019-06-08T20:13:59.715Z,98.80
2019-06-08T20:16:34.255Z,98.80
2019-06-08T20:19:08.096Z,99.20
2019-06-08T20:21:42.788Z,98.80
2019-06-08T20:24:18.289Z,99.60
2019-06-08T20:29:28.291Z,99.30
2019-06-08T20:32:00.953Z,99.40
2019-06-08T20:34:33.885Z,99.70
2019-06-08T20:37:08.953Z,99.90
2019-06-08T20:39:57.292Z,99.90
2019-06-08T20:42:17.391Z,99.90
2019-06-08T20:44:53.166Z,99.70
2019-06-08T20:47:27.637Z,99.90
2019-06-08T20:50:00.784Z,99.90
2019-06-08T20:52:33.625Z,99.90
2019-06-08T20:55:07.736Z,99.90
2019-06-08T20:57:40.935Z,99.90
2019-06-08T21:00:13.729Z,99.90
2019-06-08T21:02:49.841Z,99.90
2019-06-08T21:05:30.147Z,99.90
2019-06-08T21:08:08.731Z,99.90
2019-06-08T21:10:54.639Z,99.90
2019-06-08T21:13:37.358Z,99.90
2019-06-08T21:16:19.243Z,99.90
2019-06-08T21:19:07.494Z,99.90
2019-06-08T21:21:42.548Z,99.90
2019-06-08T21:24:28.054Z,99.90
2019-06-08T21:27:08.162Z,99.90
2019-06-08T21:29:56.194Z,99.90
2019-06-08T21:32:31.466Z,99.90
2019-06-08T21:35:07.622Z,99.90
2019-06-08T21:37:50.707Z,99.90
2019-06-08T21:40:27.972Z,99.90
2019-06-08T21:43:02.868Z,99.90
2019-06-08T21:45:41.235Z,99.90
2019-06-08T21:48:27.491Z,99.90
2019-06-08T21:51:08.479Z,99.90
2019-06-08T21:56:51.596Z,99.90
2019-06-08T21:59:32.065Z,99.90
2019-06-08T22:02:04.493Z,99.90
2019-06-08T22:04:41.993Z,99.90
2019-06-08T22:07:28.331Z,99.90
2019-06-08T22:10:07.270Z,99.90
2019-06-08T22:12:50.736Z,99.90
2019-06-08T22:15:27.713Z,99.90
2019-06-08T22:18:08.011Z,99.90
2019-06-08T22:20:43.623Z,99.90
2019-06-08T22:23:23.151Z,99.90
2019-06-08T22:26:03.673Z,99.90
2019-06-08T22:28:41.890Z,99.90
2019-06-08T22:31:23.078Z,99.90
2019-06-08T22:34:02.055Z,99.90
2019-06-08T22:36:37.196Z,99.90
2019-06-08T22:39:14.568Z,99.90
2019-06-08T22:41:47.820Z,99.90
2019-06-08T22:44:21.273Z,99.90
2019-06-08T22:46:57.713Z,99.90
2019-06-08T22:49:29.758Z,99.90
2019-06-08T22:52:08.137Z,99.90
2019-06-08T22:54:40.963Z,99.90
2019-06-08T22:57:18.399Z,99.90
2019-06-08T22:59:58.822Z,99.90
2019-06-08T23:02:33.445Z,99.90
2019-06-08T23:05:08.842Z,99.90
2019-06-08T23:07:41.538Z,99.90
2019-06-08T23:10:22.436Z,99.90
2019-06-08T23:12:56.768Z,99.90
2019-06-08T23:15:35.258Z,99.90
2019-06-08T23:18:28.553Z,99.90
2019-06-08T23:21:04.285Z,99.90
2019-06-08T23:23:42.973Z,99.90
2019-06-08T23:26:18.132Z,99.90
2019-06-08T23:28:56.068Z,99.90
2019-06-08T23:31:35.314Z,99.90
2019-06-08T23:34:11.301Z,99.90
2019-06-08T23:36:57.563Z,99.90
2019-06-08T23:39:19.022Z,99.90
2019-06-08T23:41:51.743Z,99.90
2019-06-08T23:44:33.607Z,99.90
2019-06-08T23:47:06.393Z,99.90
2019-06-08T23:49:41.180Z,99.90
2019-06-08T23:52:13.979Z,99.90
2019-06-08T23:54:48.884Z,99.90
2019-06-08T23:57:31.535Z,99.90
